Time;durP1;ratioP1;P1;durP2;ratioP2;P2;SDS_P1;SDS_P2;PMS_P1;PMS_P2;Temp;Humidity;BMP_temperature;BMP_pressure;BME280_temperature;BME280_humidity;BME280_pressure;Samples;Min_cycle;Max_cycle;Signal;HPM_P1;HPM_P2
2023/01/21 00:00:32;;;;;;;;;12.33;9.67;;;;;6.69;65.26;101626.69;5029225;28;45383;-79
2023/01/21 00:02:57;;;;;;;;;9.33;9.00;;;;;6.58;65.85;101610.66;5033159;28;45479;-80
2023/01/21 00:05:23;;;;;;;;;10.33;8.33;;;;;6.50;65.38;101599.75;5014524;28;45611;-74
2023/01/21 00:07:48;;;;;;;;;11.00;9.67;;;;;6.37;65.96;101597.84;5015287;28;46118;-76
2023/01/21 00:10:14;;;;;;;;;13.67;10.33;;;;;6.46;66.53;101599.09;5017023;28;45552;-74
2023/01/21 00:12:40;;;;;;;;;8.33;7.33;;;;;6.39;66.46;101598.59;5017347;28;45507;-74
2023/01/21 00:15:06;;;;;;;;;11.00;8.33;;;;;6.81;66.67;101657.63;4999333;28;45611;-76
2023/01/21 00:17:34;;;;;;;;;11.33;10.00;;;;;6.71;66.94;101643.28;5021361;28;46143;-74
2023/01/21 00:20:02;;;;;;;;;18.67;17.00;;;;;6.70;67.01;101660.09;5040536;28;45556;-74
2023/01/21 00:22:28;;;;;;;;;12.00;11.00;;;;;6.64;67.66;101668.41;5040286;28;45315;-76
2023/01/21 00:24:53;;;;;;;;;11.00;10.67;;;;;5.98;67.90;101558.09;5040672;28;45333;-74
2023/01/21 00:27:18;;;;;;;;;14.00;13.33;;;;;6.27;67.98;101595.91;5040547;28;45534;-72
2023/01/21 00:29:43;;;;;;;;;13.00;10.67;;;;;6.47;67.49;101629.00;5040471;28;48095;-72
2023/01/21 00:32:09;;;;;;;;;11.67;9.67;;;;;6.55;67.41;101634.63;5040518;28;45454;-73
2023/01/21 00:34:34;;;;;;;;;9.67;8.33;;;;;6.31;67.24;101590.31;5040557;28;45476;-74
2023/01/21 00:36:59;;;;;;;;;10.33;10.33;;;;;6.67;67.16;101647.94;5040856;28;45518;-75
2023/01/21 00:39:25;;;;;;;;;11.33;8.33;;;;;6.73;66.82;101673.13;5033019;28;45548;-73
2023/01/21 00:41:50;;;;;;;;;10.00;10.00;;;;;6.69;67.12;101650.47;5015529;28;45541;-71
2023/01/21 00:44:16;;;;;;;;;9.00;9.00;;;;;6.23;66.34;101589.97;5051612;28;45436;-74
2023/01/21 00:46:42;;;;;;;;;11.00;9.67;;;;;6.75;66.96;101684.44;5040091;28;45754;-76
2023/01/21 00:49:07;;;;;;;;;9.00;9.00;;;;;6.65;66.66;101670.97;5034128;28;45468;-73
2023/01/21 00:51:32;;;;;;;;;12.67;9.67;;;;;6.53;67.06;101641.81;5036071;28;45298;-79
2023/01/21 00:53:58;;;;;;;;;9.00;9.00;;;;;6.55;67.42;101667.19;5030102;28;45219;-73
2023/01/21 00:56:23;;;;;;;;;13.33;10.67;;;;;6.39;67.15;101647.94;5028618;28;45779;-85
2023/01/21 00:58:49;;;;;;;;;9.33;8.00;;;;;6.17;67.99;101637.84;5025555;28;46035;-81
2023/01/21 01:01:18;;;;;;;;;12.33;11.67;;;;;6.31;68.28;101672.19;5024551;28;45484;-69
2023/01/21 01:03:44;;;;;;;;;8.00;8.00;;;;;5.60;68.19;101550.69;5017960;28;45562;-70
2023/01/21 01:06:16;;;;;;;;;9.67;8.00;;;;;6.37;68.64;101708.78;5017485;28;46236;-73
2023/01/21 01:08:42;;;;;;;;;10.33;8.33;;;;;6.24;69.34;101722.84;5016983;28;45622;-74
2023/01/21 01:11:08;;;;;;;;;9.67;9.00;;;;;6.19;70.10;101712.53;5026451;28;45413;-72
2023/01/21 01:13:35;;;;;;;;;5.33;5.33;;;;;5.95;68.83;101667.34;5040011;28;45503;-72
2023/01/21 01:16:01;;;;;;;;;8.00;8.00;;;;;5.28;69.42;101578.13;5039783;28;45500;-73
2023/01/21 01:18:29;;;;;;;;;9.33;8.33;;;;;6.05;69.35;101712.53;5023857;28;46343;-72
2023/01/21 01:20:55;;;;;;;;;11.00;10.00;;;;;5.95;69.54;101695.53;5040294;28;45563;-75
2023/01/21 01:23:20;;;;;;;;;13.33;11.00;;;;;6.21;69.20;101731.81;5039594;28;45371;-74
2023/01/21 01:25:57;;;;;;;;;9.67;9.00;;;;;5.57;68.90;101634.44;5021451;28;47910;-71
2023/01/21 01:28:22;;;;;;;;;11.33;10.33;;;;;6.21;69.41;101741.53;5021505;28;45583;-73
2023/01/21 01:30:48;;;;;;;;;10.00;10.00;;;;;6.12;69.47;101734.97;5039487;28;45415;-74
2023/01/21 01:33:13;;;;;;;;;17.00;12.67;;;;;6.02;69.49;101747.03;5039820;28;45307;-72
2023/01/21 01:35:40;;;;;;;;;12.00;10.00;;;;;5.85;69.72;101741.84;5020564;28;56416;-72
2023/01/21 01:38:08;;;;;;;;;12.67;12.67;;;;;4.97;69.52;101602.75;5021144;28;46093;-73
2023/01/21 01:40:34;;;;;;;;;12.00;10.00;;;;;5.69;70.52;101752.44;5039346;28;45405;-73
2023/01/21 01:43:00;;;;;;;;;9.67;9.33;;;;;5.75;70.40;101755.56;5039430;28;45923;-73
2023/01/21 01:45:25;;;;;;;;;15.67;11.33;;;;;4.96;70.39;101612.44;5021250;28;48705;-72
2023/01/21 01:47:58;;;;;;;;;23.67;22.33;;;;;4.94;69.56;101624.00;5039307;28;45484;-73
2023/01/21 01:50:28;;;;;;;;;16.33;14.33;;;;;5.74;70.23;101759.16;5021384;28;45273;-70
2023/01/21 01:52:55;;;;;;;;;19.33;16.33;;;;;5.32;69.62;101698.28;5039400;28;45262;-75
2023/01/21 01:55:22;;;;;;;;;19.00;17.00;;;;;5.38;69.26;101719.03;5039352;28;45689;-79
2023/01/21 01:57:51;;;;;;;;;17.67;17.67;;;;;5.33;67.59;101697.34;5040626;28;45265;-82
2023/01/21 02:00:17;;;;;;;;;18.00;11.00;;;;;5.37;67.93;101722.59;5032193;28;44842;-76
2023/01/21 02:03:43;;;;;;;;;18.33;16.67;;;;;5.77;68.06;101773.94;5030904;28;45412;-77
2023/01/21 02:05:30;;;;;;;;;19.33;13.67;;;;;5.80;67.25;101779.91;5038276;28;45842;-76
2023/01/21 02:07:56;;;;;;;;;17.67;13.00;;;;;5.81;66.53;101801.88;5017471;28;45294;-78
2023/01/21 02:10:21;;;;;;;;;15.33;13.67;;;;;4.45;64.02;101574.06;5001385;28;45491;-75
2023/01/21 02:12:47;;;;;;;;;13.33;11.67;;;;;5.36;63.84;101734.94;5018899;28;45213;-72
2023/01/21 02:15:12;;;;;;;;;13.67;12.33;;;;;5.64;64.06;101799.34;5034905;28;46642;-73
2023/01/21 02:17:56;;;;;;;;;11.33;11.33;;;;;5.65;64.70;101803.69;5056741;28;45461;-75
2023/01/21 02:20:50;;;;;;;;;16.67;16.67;;;;;5.28;65.08;101755.63;5038056;28;45712;-73
2023/01/21 02:23:44;;;;;;;;;16.33;16.33;;;;;5.18;66.27;101744.72;5033152;28;45586;-75
2023/01/21 02:26:31;;;;;;;;;19.67;18.00;;;;;5.59;66.49;101806.66;5016090;28;46858;-77
2023/01/21 02:29:24;;;;;;;;;17.67;17.67;;;;;5.54;66.70;101814.81;5016367;28;45623;-73
2023/01/21 02:31:59;;;;;;;;;17.67;15.00;;;;;5.49;65.72;101822.16;5016828;28;45774;-76
2023/01/21 02:34:30;;;;;;;;;10.67;10.67;;;;;5.45;66.49;101826.75;5017308;28;45455;-74
2023/01/21 02:37:12;;;;;;;;;17.00;16.33;;;;;4.91;65.03;101746.25;5033388;28;47428;-72
2023/01/21 02:39:57;;;;;;;;;17.33;14.67;;;;;5.42;64.06;101873.53;5032386;28;45316;-72
2023/01/21 02:42:45;;;;;;;;;20.67;18.33;;;;;5.14;64.50;101842.53;5000125;28;45479;-70
2023/01/21 02:45:31;;;;;;;;;5.00;4.00;;;;;5.30;65.01;101871.56;5018313;28;45446;-72
2023/01/21 02:48:06;;;;;;;;;12.00;12.00;;;;;5.39;64.84;101861.34;5016315;28;45812;-72
2023/01/21 02:50:40;;;;;;;;;20.67;14.67;;;;;5.47;65.04;101871.50;5016510;28;45400;-72
2023/01/21 02:53:05;;;;;;;;;15.33;14.00;;;;;5.09;64.36;101808.50;5017316;28;45466;-71
2023/01/21 02:55:35;;;;;;;;;16.00;15.00;;;;;5.25;63.73;101857.78;5017186;28;45539;-72
2023/01/21 02:58:08;;;;;;;;;14.00;12.33;;;;;5.09;63.47;101849.81;5000017;28;49478;-74
2023/01/21 03:00:48;;;;;;;;;13.67;10.00;;;;;5.12;62.69;101897.97;5015957;28;45363;-72
2023/01/21 03:03:22;;;;;;;;;16.33;15.33;;;;;5.09;63.97;101903.41;5039728;28;45974;-73
2023/01/21 03:06:08;;;;;;;;;18.67;16.00;;;;;4.92;63.95;101906.06;5021371;28;45405;-72
2023/01/21 03:08:55;;;;;;;;;14.00;10.67;;;;;4.92;63.61;101916.59;5037091;28;45825;-73
2023/01/21 03:11:22;;;;;;;;;19.33;17.33;;;;;4.90;63.86;101931.63;5035658;28;45884;-71
2023/01/21 03:17:14;;;;;;;;;8.00;7.33;;;;;4.70;62.96;101930.00;5037469;28;45443;-71
2023/01/21 03:19:48;;;;;;;;;22.33;17.00;;;;;4.62;63.64;101923.44;5019185;28;47507;-71
2023/01/21 03:22:18;;;;;;;;;18.00;16.33;;;;;4.36;63.84;101880.81;5019230;28;45939;-72
2023/01/21 03:24:48;;;;;;;;;19.33;16.00;;;;;4.49;62.10;101938.97;5037461;28;45461;-72
2023/01/21 03:27:17;;;;;;;;;15.00;13.67;;;;;4.09;61.48;101895.31;5019542;28;45515;-72
2023/01/21 03:29:45;;;;;;;;;20.33;19.00;;;;;3.45;61.62;101798.47;5037112;28;46224;-73
2023/01/21 03:32:15;;;;;;;;;16.33;11.00;;;;;4.10;62.20;101968.09;5037207;28;45442;-71
2023/01/21 03:34:44;;;;;;;;;19.00;15.33;;;;;3.88;62.06;101934.88;5037998;28;45251;-73
2023/01/21 03:37:16;;;;;;;;;17.67;16.33;;;;;4.01;61.49;101963.28;5019707;28;45565;-72
2023/01/21 03:39:51;;;;;;;;;18.67;17.00;;;;;3.92;62.07;101960.13;5037139;28;45417;-73
2023/01/21 03:42:17;;;;;;;;;18.00;16.33;;;;;3.80;61.57;101955.41;5036977;28;45523;-73
2023/01/21 03:44:42;;;;;;;;;19.00;19.00;;;;;3.68;62.42;101963.91;5019196;28;45268;-73
2023/01/21 03:47:22;;;;;;;;;14.33;14.33;;;;;3.52;61.91;101955.84;5037455;28;45587;-71
2023/01/21 03:49:56;;;;;;;;;18.33;16.33;;;;;3.87;61.69;101993.69;5018362;28;47745;-71
2023/01/21 03:52:24;;;;;;;;;25.67;24.67;;;;;2.84;60.99;101819.66;5036679;28;45331;-73
2023/01/21 03:54:50;;;;;;;;;30.00;25.67;;;;;2.69;61.36;101802.81;5019013;28;45340;-70
2023/01/21 03:57:15;;;;;;;;;26.00;24.67;;;;;3.42;61.48;101922.16;5019192;28;45305;-71
2023/01/21 03:59:40;;;;;;;;;25.00;21.00;;;;;3.77;61.96;101987.13;5036433;28;59690;-73
2023/01/21 04:02:06;;;;;;;;;27.33;23.67;;;;;3.72;62.06;101970.72;5019253;28;45428;-72
2023/01/21 04:04:31;;;;;;;;;25.67;24.67;;;;;2.22;62.51;101713.03;5037859;28;45244;-72
2023/01/21 04:06:56;;;;;;;;;32.00;25.67;;;;;3.75;62.81;101977.59;5037519;28;45477;-71
2023/01/21 04:09:22;;;;;;;;;22.33;20.00;;;;;3.19;61.51;101891.63;5035784;28;45904;-71
2023/01/21 04:11:47;;;;;;;;;23.00;22.00;;;;;3.68;61.94;101995.44;5035956;28;45230;-72
2023/01/21 04:14:12;;;;;;;;;31.33;28.00;;;;;2.51;62.04;101796.59;5037864;28;45485;-71
2023/01/21 04:16:38;;;;;;;;;31.67;29.67;;;;;3.39;62.22;101957.31;5037074;28;45262;-70
2023/01/21 04:19:04;;;;;;;;;26.33;23.33;;;;;3.32;62.83;102004.03;5018753;28;50184;-72
2023/01/21 04:21:29;;;;;;;;;21.33;21.33;;;;;3.08;63.05;101985.84;5035306;28;45311;-70
2023/01/21 04:23:54;;;;;;;;;23.33;23.33;;;;;2.61;62.91;101918.69;5036772;28;45632;-71
2023/01/21 04:26:20;;;;;;;;;6.67;0.00;;;;;3.23;63.18;102019.38;5037523;28;45237;-71
2023/01/21 04:28:45;;;;;;;;;35.33;32.67;;;;;3.30;63.29;102029.53;5035039;28;48242;-71
2023/01/21 04:31:10;;;;;;;;;26.00;22.67;;;;;3.39;63.57;102022.16;5036529;28;45607;-72
2023/01/21 04:33:36;;;;;;;;;37.00;33.00;;;;;3.32;62.94;102006.66;5037287;28;45352;-70
2023/01/21 04:36:01;;;;;;;;;32.67;27.33;;;;;3.36;64.26;102031.91;5037211;28;45594;-73
2023/01/21 04:38:27;;;;;;;;;29.00;23.00;;;;;3.48;63.05;102016.53;5036147;28;46386;-72
2023/01/21 04:40:52;;;;;;;;;18.67;17.00;;;;;2.18;63.75;101819.00;5036595;28;45350;-72
2023/01/21 04:43:18;;;;;;;;;28.67;27.33;;;;;3.38;63.50;102025.72;5036656;28;45508;-72
2023/01/21 04:45:43;;;;;;;;;29.67;24.67;;;;;3.13;63.65;101991.75;5036727;28;45498;-71
2023/01/21 04:48:08;;;;;;;;;30.00;26.33;;;;;3.02;63.68;101987.84;5036469;28;46450;-71
2023/01/21 04:50:34;;;;;;;;;34.33;27.67;;;;;3.16;62.86;102017.91;5019979;28;63858;-72
2023/01/21 04:52:59;;;;;;;;;22.00;20.00;;;;;2.60;63.56;101932.72;5040953;28;45266;-71
2023/01/21 04:55:25;;;;;;;;;26.67;24.67;;;;;2.22;63.84;101873.09;5039493;28;45520;-71
2023/01/21 04:57:50;;;;;;;;;32.33;22.33;;;;;3.07;63.36;102031.44;5018862;28;46559;-74
2023/01/21 05:00:16;;;;;;;;;23.00;22.00;;;;;2.99;63.81;102008.09;5036859;28;45303;-70
2023/01/21 05:02:41;;;;;;;;;27.67;27.67;;;;;3.11;63.50;102036.50;5040454;28;45297;-73
2023/01/21 05:05:07;;;;;;;;;24.00;21.67;;;;;2.67;63.85;101952.53;5040891;28;45375;-74
2023/01/21 05:07:33;;;;;;;;;30.67;24.67;;;;;3.01;63.33;102030.78;5039520;28;45471;-71
2023/01/21 05:09:58;;;;;;;;;23.00;22.33;;;;;2.59;64.31;101980.88;5039969;28;45394;-73
2023/01/21 05:12:24;;;;;;;;;30.00;28.00;;;;;2.74;64.84;102016.16;5022128;28;45314;-70
2023/01/21 05:14:53;;;;;;;;;34.33;30.33;;;;;2.50;64.08;101991.75;5040194;28;45491;-70
2023/01/21 05:17:20;;;;;;;;;30.33;23.33;;;;;2.61;64.81;102010.56;5039296;28;45751;-72
2023/01/21 05:19:45;;;;;;;;;28.33;24.33;;;;;2.80;64.14;102046.56;5039485;28;45306;-71
2023/01/21 05:22:10;;;;;;;;;31.00;26.33;;;;;2.65;63.91;102025.28;5037964;28;45406;-71
2023/01/21 05:24:36;;;;;;;;;31.67;27.00;;;;;2.31;64.72;101977.66;5039944;28;45171;-72
2023/01/21 05:27:01;;;;;;;;;25.33;24.33;;;;;2.48;64.58;102037.34;5039687;28;45431;-73
2023/01/21 05:29:27;;;;;;;;;30.33;24.67;;;;;2.46;65.66;102068.06;5039256;28;45425;-71
2023/01/21 05:31:52;;;;;;;;;28.67;22.67;;;;;2.50;65.60;102057.38;5021616;28;45247;-71
2023/01/21 05:34:17;;;;;;;;;30.33;26.33;;;;;2.48;65.19;102055.72;5039760;28;45421;-72
2023/01/21 05:36:42;;;;;;;;;25.67;23.67;;;;;2.41;65.54;102036.75;5039266;28;50688;-71
2023/01/21 05:39:08;;;;;;;;;30.33;24.67;;;;;2.53;64.81;102066.91;5021076;28;45463;-70
2023/01/21 05:41:33;;;;;;;;;26.67;21.33;;;;;2.48;65.67;102064.47;5039166;28;45300;-72
2023/01/21 05:43:58;;;;;;;;;32.00;26.00;;;;;2.40;65.19;102061.25;5039249;28;45202;-71
2023/01/21 05:46:24;;;;;;;;;27.33;23.67;;;;;2.41;65.72;102066.47;5039168;28;46316;-72
2023/01/21 05:48:49;;;;;;;;;35.33;29.33;;;;;2.50;65.81;102065.25;5039066;28;45254;-71
2023/01/21 05:51:14;;;;;;;;;32.00;23.00;;;;;2.57;66.01;102071.09;5039235;28;45443;-70
2023/01/21 05:53:40;;;;;;;;;33.67;30.33;;;;;2.67;64.68;102086.44;5039071;28;45285;-72
2023/01/21 05:56:05;;;;;;;;;28.33;22.00;;;;;2.50;65.49;102065.25;5037936;28;67055;-71
2023/01/21 05:58:30;;;;;;;;;40.33;28.33;;;;;2.46;65.59;102053.16;5021111;28;45490;-73
2023/01/21 06:00:57;;;;;;;;;31.00;27.00;;;;;2.71;65.55;102087.19;5039297;28;45389;-72
2023/01/21 06:03:23;;;;;;;;;25.33;21.00;;;;;1.82;65.07;101940.25;5021218;28;45534;-71
2023/01/21 06:05:49;;;;;;;;;37.00;31.67;;;;;2.35;65.36;102050.09;5038663;28;46817;-74
2023/01/21 06:08:14;;;;;;;;;32.33;30.67;;;;;2.45;65.97;102096.09;5039068;28;45301;-74
2023/01/21 06:10:39;;;;;;;;;39.33;27.67;;;;;2.11;65.95;102013.41;5039326;28;45592;-71
2023/01/21 06:13:05;;;;;;;;;32.67;26.33;;;;;2.18;65.88;102027.13;5038324;28;45299;-71
2023/01/21 06:15:32;;;;;;;;;40.00;34.33;;;;;2.60;66.29;102090.25;5038539;28;45592;-72
2023/01/21 06:17:58;;;;;;;;;35.67;28.00;;;;;2.55;66.63;102097.41;5017420;28;46507;-73
2023/01/21 06:20:24;;;;;;;;;21.33;15.33;;;;;2.06;66.83;102044.19;5019027;28;45263;-71
2023/01/21 06:22:49;;;;;;;;;30.33;28.33;;;;;2.34;66.35;102104.34;5018906;28;45233;-72
2023/01/21 06:25:14;;;;;;;;;31.67;28.67;;;;;2.05;67.19;102050.38;5017186;28;46656;-71
2023/01/21 06:27:40;;;;;;;;;34.33;27.33;;;;;2.37;67.33;102113.88;5018559;28;45269;-72
2023/01/21 06:30:07;;;;;;;;;33.33;30.00;;;;;1.90;66.94;102045.69;5018458;28;45222;-70
2023/01/21 06:32:33;;;;;;;;;35.67;30.00;;;;;2.23;67.82;102111.78;5019149;28;45551;-73
2023/01/21 06:34:58;;;;;;;;;29.67;26.33;;;;;2.40;67.15;102119.00;5019748;28;45779;-73
2023/01/21 06:37:24;;;;;;;;;38.67;30.00;;;;;2.39;67.38;102117.28;5020730;28;46428;-74
2023/01/21 06:39:49;;;;;;;;;35.33;31.00;;;;;2.16;67.56;102083.19;5019672;28;45403;-71
2023/01/21 06:42:16;;;;;;;;;37.33;33.67;;;;;2.43;67.47;102125.00;5017685;28;45503;-72
2023/01/21 06:44:42;;;;;;;;;41.75;34.50;;;;;2.30;67.58;102118.50;5018541;28;46557;-73
2023/01/21 06:47:08;;;;;;;;;37.00;33.25;;;;;2.19;68.33;102140.78;5016682;28;46362;-72
2023/01/21 06:49:33;;;;;;;;;36.67;35.00;;;;;2.20;68.61;102137.25;5018376;28;45306;-72
2023/01/21 06:51:58;;;;;;;;;38.67;35.00;;;;;2.30;68.28;102143.91;5016998;28;45530;-71
2023/01/21 06:54:24;;;;;;;;;41.50;37.50;;;;;2.26;68.04;102163.28;5017969;28;46580;-73
2023/01/21 06:56:49;;;;;;;;;43.33;36.00;;;;;2.31;68.43;102141.22;5018069;28;45226;-71
2023/01/21 06:59:14;;;;;;;;;49.75;39.00;;;;;2.24;68.50;102146.75;5018099;28;45329;-72
2023/01/21 07:01:40;;;;;;;;;42.75;37.75;;;;;1.29;68.54;102010.34;5018279;28;45265;-71
2023/01/21 07:04:05;;;;;;;;;36.75;34.75;;;;;2.04;69.32;102153.56;5017640;28;45376;-73
2023/01/21 07:06:30;;;;;;;;;39.50;36.25;;;;;2.05;68.69;102142.16;5017874;28;46699;-72
2023/01/21 07:08:56;;;;;;;;;43.67;36.00;;;;;2.13;68.71;102150.59;5017936;28;45533;-72
2023/01/21 07:11:21;;;;;;;;;37.33;30.00;;;;;1.92;69.17;102129.53;5017910;28;45689;-71
2023/01/21 07:13:46;;;;;;;;;41.67;36.33;;;;;2.22;68.90;102180.06;5017403;28;52191;-70
2023/01/21 07:16:12;;;;;;;;;35.67;30.33;;;;;2.06;68.86;102148.28;5034409;28;60579;-71
2023/01/21 07:18:37;;;;;;;;;39.75;34.00;;;;;1.78;69.09;102130.03;5038044;28;45380;-74
2023/01/21 07:21:02;;;;;;;;;47.25;36.25;;;;;1.97;69.13;102159.06;5020006;28;45462;-72
2023/01/21 07:23:29;;;;;;;;;43.00;32.75;;;;;2.28;69.53;102198.19;5038295;28;45530;-72
2023/01/21 07:25:55;;;;;;;;;49.25;40.00;;;;;1.97;69.23;102167.81;5037508;28;45392;-71
2023/01/21 07:28:20;;;;;;;;;49.50;42.50;;;;;1.98;68.97;102174.75;5038301;28;45354;-71
2023/01/21 07:30:45;;;;;;;;;46.75;41.25;;;;;2.22;68.85;102219.41;5037871;28;45390;-72
2023/01/21 07:33:11;;;;;;;;;44.50;36.50;;;;;2.10;68.72;102183.97;5037199;28;45629;-73
2023/01/21 07:35:36;;;;;;;;;47.00;40.25;;;;;2.10;69.02;102225.94;5037495;28;45187;-71
2023/01/21 07:38:02;;;;;;;;;45.75;35.75;;;;;1.75;69.67;102182.56;5019455;28;45471;-73
2023/01/21 07:40:27;;;;;;;;;52.00;40.25;;;;;1.81;70.12;102222.56;5038221;28;45316;-72
2023/01/21 07:42:54;;;;;;;;;32.00;32.00;;;;;1.73;70.60;102210.59;5037425;28;46399;-72
2023/01/21 07:45:21;;;;;;;;;40.00;34.75;;;;;1.91;70.50;102240.59;5038825;28;45143;-73
2023/01/21 07:47:46;;;;;;;;;55.50;43.25;;;;;1.86;70.20;102205.81;5019301;28;45357;-72
2023/01/21 07:50:11;;;;;;;;;47.75;40.50;;;;;2.12;69.81;102237.25;5037506;28;45581;-72
2023/01/21 07:52:37;;;;;;;;;38.75;33.25;;;;;1.88;69.42;102189.13;5037869;28;45570;-75
2023/01/21 07:55:03;;;;;;;;;60.75;48.25;;;;;1.32;69.10;102099.31;5037213;28;45333;-74
2023/01/21 07:57:28;;;;;;;;;51.25;42.75;;;;;1.65;69.58;102199.53;5019597;28;45525;-72
2023/01/21 07:59:54;;;;;;;;;55.25;44.00;;;;;1.53;70.13;102199.03;5019690;28;45380;-72
2023/01/21 08:02:19;;;;;;;;;59.75;41.50;;;;;1.96;70.27;102254.41;5019395;28;47987;-71
2023/01/21 08:04:44;;;;;;;;;48.25;40.25;;;;;1.94;69.84;102237.88;5037774;28;45341;-71
2023/01/21 08:07:10;;;;;;;;;49.25;40.75;;;;;2.08;69.66;102244.38;5037409;28;45250;-71
2023/01/21 08:09:36;;;;;;;;;49.75;39.50;;;;;1.94;68.98;102206.41;5037655;28;45388;-72
2023/01/21 08:12:03;;;;;;;;;54.75;42.75;;;;;2.03;69.04;102235.81;5036766;28;47132;-72
2023/01/21 08:14:28;;;;;;;;;60.75;47.25;;;;;2.25;68.67;102279.66;5039074;28;45275;-71
2023/01/21 08:16:53;;;;;;;;;57.25;41.00;;;;;2.21;68.75;102257.06;5038028;28;45496;-73
2023/01/21 08:19:19;;;;;;;;;50.50;42.50;;;;;2.13;68.43;102224.06;5037600;28;45288;-71
2023/01/21 08:21:44;;;;;;;;;49.00;40.50;;;;;2.39;68.52;102274.75;5020613;28;47192;-73
2023/01/21 08:24:10;;;;;;;;;52.50;39.50;;;;;1.17;68.49;102056.13;5019948;28;45734;-71
2023/01/21 08:26:35;;;;;;;;;57.50;42.25;;;;;1.62;67.66;102134.09;5019166;28;45265;-71
2023/01/21 08:29:00;;;;;;;;;49.33;40.67;;;;;2.40;67.46;102273.84;5037062;28;45493;-75
2023/01/21 08:31:26;;;;;;;;;54.25;41.75;;;;;1.79;67.80;102155.31;5036906;28;63342;-72
2023/01/21 08:33:51;;;;;;;;;49.00;41.00;;;;;2.52;67.62;102280.44;5037174;28;45429;-73
2023/01/21 08:36:16;;;;;;;;;57.00;43.00;;;;;2.44;67.33;102293.84;5036861;28;45460;-73
2023/01/21 08:38:42;;;;;;;;;52.75;40.50;;;;;2.29;67.16;102249.78;5040222;28;45590;-73
2023/01/21 08:41:11;;;;;;;;;55.25;45.00;;;;;2.61;67.92;102296.75;5022219;28;48688;-72
2023/01/21 08:43:37;;;;;;;;;41.25;39.00;;;;;2.65;67.14;102308.84;5022360;28;45392;-72
2023/01/21 08:46:02;;;;;;;;;42.75;37.75;;;;;2.41;66.43;102241.47;5022858;28;45274;-71
2023/01/21 08:48:28;;;;;;;;;58.75;47.50;;;;;2.84;65.95;102302.94;5022973;28;45348;-71
2023/01/21 08:50:57;;;;;;;;;60.25;43.75;;;;;2.09;66.15;102164.75;5040121;28;45296;-72
2023/01/21 08:53:23;;;;;;;;;51.00;39.33;;;;;2.57;65.28;102231.25;5021942;28;45366;-73
2023/01/21 08:55:48;;;;;;;;;52.25;43.00;;;;;3.03;65.21;102285.56;5040392;28;45698;-74
2023/01/21 08:58:14;;;;;;;;;45.25;37.50;;;;;3.05;65.29;102307.38;5022213;28;45635;-74
2023/01/21 09:00:40;;;;;;;;;53.00;45.00;;;;;3.02;65.34;102307.50;5022556;28;45682;-74
2023/01/21 09:03:06;;;;;;;;;55.75;46.00;;;;;3.10;64.99;102315.94;5021982;28;46081;-71
2023/01/21 09:05:31;;;;;;;;;53.67;43.00;;;;;2.00;65.09;102149.34;5039752;28;45380;-71
2023/01/21 09:07:56;;;;;;;;;59.75;48.75;;;;;2.14;64.52;102160.19;5039849;28;45974;-73
2023/01/21 09:13:07;;;;;;;;;61.25;47.75;;;;;3.13;65.23;102347.34;5039625;28;45453;-71
2023/01/21 09:15:40;;;;;;;;;56.25;47.00;;;;;2.01;64.11;102106.47;5021921;28;45299;-73
2023/01/21 09:18:06;;;;;;;;;54.75;43.00;;;;;3.60;63.53;102342.94;5021880;28;45364;-71
2023/01/21 09:20:32;;;;;;;;;48.00;40.75;;;;;3.85;62.47;102331.44;5039449;28;46437;-73
2023/01/21 09:22:58;;;;;;;;;58.25;47.75;;;;;3.68;61.23;102266.34;5021601;28;45316;-73
2023/01/21 09:25:23;;;;;;;;;55.00;42.50;;;;;3.93;59.83;102224.94;5039578;28;45471;-74
2023/01/21 09:27:49;;;;;;;;;61.00;45.00;;;;;5.02;58.45;102341.34;5039394;28;45317;-72
2023/01/21 09:30:15;;;;;;;;;54.25;42.75;;;;;3.80;58.24;102183.41;5039217;28;46387;-73
2023/01/21 09:32:40;;;;;;;;;60.50;47.25;;;;;4.55;59.56;102339.84;5021123;28;45350;-73
2023/01/21 09:35:07;;;;;;;;;63.25;46.00;;;;;4.55;59.42;102347.75;5020968;28;45478;-73
2023/01/21 09:37:33;;;;;;;;;47.25;40.25;;;;;3.20;59.55;102151.72;5040923;28;45562;-70
2023/01/21 09:40:02;;;;;;;;;59.00;46.00;;;;;4.09;59.80;102353.25;5038126;28;46157;-72
2023/01/21 09:42:31;;;;;;;;;61.00;48.75;;;;;3.49;61.82;102321.44;5021254;28;46082;-72
2023/01/21 09:44:59;;;;;;;;;56.75;45.25;;;;;3.57;62.09;102336.91;5039369;28;45603;-74
2023/01/21 09:47:27;;;;;;;;;47.75;39.25;;;;;3.70;62.28;102363.59;5021561;28;45320;-70
2023/01/21 09:49:57;;;;;;;;;55.50;43.00;;;;;3.73;61.72;102374.84;5039832;28;45729;-73
2023/01/21 09:52:39;;;;;;;;;58.25;47.25;;;;;3.49;62.52;102375.81;5040288;28;45456;-73
2023/01/21 09:55:14;;;;;;;;;60.25;49.25;;;;;3.44;63.32;102383.03;5022250;28;45232;-76
2023/01/21 09:57:57;;;;;;;;;59.50;45.75;;;;;3.26;63.29;102368.78;5021912;28;45467;-71
2023/01/21 10:00:31;;;;;;;;;59.50;45.75;;;;;3.48;63.35;102413.53;5039535;28;46631;-73
2023/01/21 10:03:23;;;;;;;;;60.00;45.25;;;;;3.49;62.88;102400.34;5040905;28;45475;-73
2023/01/21 10:06:12;;;;;;;;;61.00;49.25;;;;;3.29;63.04;102403.69;5041853;28;45695;-73
2023/01/21 10:09:12;;;;;;;;;51.00;39.75;;;;;3.11;63.54;102407.00;5040198;28;45223;-71
2023/01/21 10:12:19;;;;;;;;;60.00;46.00;;;;;2.28;63.92;102288.28;5026599;28;48002;-74
2023/01/21 10:15:02;;;;;;;;;58.25;48.50;;;;;3.15;63.87;102426.13;5038252;28;45359;-73
2023/01/21 10:17:54;;;;;;;;;58.00;44.00;;;;;3.17;63.52;102401.50;5017167;28;45690;-74
2023/01/21 10:20:31;;;;;;;;;57.50;45.00;;;;;3.25;64.23;102425.75;5017414;28;45266;-70
2023/01/21 10:23:05;;;;;;;;;57.50;45.25;;;;;3.17;63.34;102437.44;5017702;28;46180;-73
2023/01/21 10:25:32;;;;;;;;;58.00;42.75;;;;;3.24;63.21;102438.97;5022324;28;45490;-73
2023/01/21 10:28:08;;;;;;;;;51.25;40.50;;;;;2.35;63.05;102296.78;5022709;28;45282;-73
2023/01/21 10:30:38;;;;;;;;;49.25;42.50;;;;;2.59;63.18;102327.41;5034386;28;45512;-73
2023/01/21 10:33:11;;;;;;;;;56.50;46.50;;;;;3.17;63.19;102411.16;5018723;28;45265;-72
2023/01/21 10:36:07;;;;;;;;;59.25;45.25;;;;;3.36;62.98;102426.22;5015969;28;45670;-76
2023/01/21 10:38:39;;;;;;;;;60.50;46.75;;;;;3.39;62.39;102432.25;4998368;28;45267;-75
2023/01/21 10:41:32;;;;;;;;;58.00;44.50;;;;;2.94;62.69;102362.09;4998701;28;45546;-74
2023/01/21 10:44:13;;;;;;;;;43.75;37.00;;;;;2.77;63.18;102301.41;5019361;28;48213;-78
2023/01/21 10:47:01;;;;;;;;;56.33;43.00;;;;;3.66;61.36;102407.59;5016278;28;45472;-73
2023/01/21 10:49:53;;;;;;;;;52.00;39.50;;;;;3.86;61.03;102418.19;5020774;28;45587;-71
2023/01/21 10:52:30;;;;;;;;;47.33;38.00;;;;;3.71;60.93;102423.19;5014518;28;45503;-74
2023/01/21 10:55:44;;;;;;;;;47.75;41.25;;;;;3.57;62.29;102415.81;5019801;28;47200;-74
2023/01/21 10:58:47;;;;;;;;;46.33;37.00;;;;;3.70;61.68;102430.22;5018694;28;45301;-72
2023/01/21 11:01:29;;;;;;;;;45.00;39.00;;;;;3.70;61.59;102460.91;5017839;28;45305;-72
2023/01/21 11:04:03;;;;;;;;;48.00;37.67;;;;;3.45;61.01;102417.13;5019097;28;45687;-73
2023/01/21 11:06:31;;;;;;;;;43.00;35.00;;;;;3.13;61.03;102359.63;5020626;28;45452;-72
2023/01/21 11:09:03;;;;;;;;;36.33;32.67;;;;;2.55;60.83;102236.56;5001054;28;45269;-74
2023/01/21 11:11:31;;;;;;;;;45.33;37.00;;;;;3.78;61.04;102446.53;5012570;28;45345;-75
2023/01/21 11:13:57;;;;;;;;;43.00;38.00;;;;;3.73;61.01;102416.94;5016698;28;45482;-75
2023/01/21 11:16:38;;;;;;;;;48.67;40.00;;;;;4.00;60.44;102445.72;5020877;28;46597;-74
2023/01/21 11:19:06;;;;;;;;;37.33;36.00;;;;;3.93;61.17;102426.69;5008427;28;45503;-76
2023/01/21 11:21:39;;;;;;;;;50.00;38.00;;;;;3.25;60.53;102281.19;5018066;28;45300;-76
2023/01/21 11:24:22;;;;;;;;;43.00;39.33;;;;;4.16;60.28;102446.84;5018405;28;46387;-77
2023/01/21 11:26:53;;;;;;;;;53.00;42.33;;;;;3.38;59.16;102325.41;5020356;28;45490;-73
2023/01/21 11:29:20;;;;;;;;;49.67;39.67;;;;;3.89;60.36;102441.75;5038026;28;45282;-76
2023/01/21 11:31:49;;;;;;;;;53.75;40.00;;;;;3.65;60.63;102380.41;5034098;28;45276;-72
2023/01/21 11:34:17;;;;;;;;;46.33;39.00;;;;;1.87;60.27;102079.88;5012799;28;45355;-76